Time;durP1;ratioP1;P1;durP2;ratioP2;P2;SDS_P1;SDS_P2;PMS_P1;PMS_P2;Temp;Humidity;BMP_temperature;BMP_pressure;BME280_temperature;BME280_humidity;BME280_pressure;Samples;Min_cycle;Max_cycle;Signal;HPM_P1;HPM_P2
2023/06/25 00:00:28;;;;;;;12.88;9.77;;;19.20;82.40;;;;;;4954273;28;20063;-79
2023/06/25 00:02:54;;;;;;;11.73;10.02;;;19.20;82.50;;;;;;4949678;29;20122;-80
2023/06/25 00:05:21;;;;;;;14.55;10.30;;;19.20;82.50;;;;;;4938884;29;20090;-80
2023/06/25 00:07:47;;;;;;;13.05;10.00;;;19.20;82.50;;;;;;4938285;29;20082;-77
2023/06/25 00:10:13;;;;;;;13.13;9.98;;;19.20;82.50;;;;;;4922461;29;20074;-81
2023/06/25 00:12:39;;;;;;;13.93;10.52;;;19.20;82.30;;;;;;4938478;29;20123;-81
2023/06/25 00:15:05;;;;;;;12.05;10.30;;;19.20;82.50;;;;;;4938466;29;20043;-80
2023/06/25 00:17:31;;;;;;;13.05;10.73;;;19.10;82.50;;;;;;4940183;28;20051;-81
2023/06/25 00:19:58;;;;;;;12.15;10.35;;;19.10;82.40;;;;;;4957418;28;20043;-79
2023/06/25 00:22:24;;;;;;;13.80;10.48;;;19.00;82.60;;;;;;4957828;28;20368;-80
2023/06/25 00:24:50;;;;;;;13.98;11.00;;;19.00;82.80;;;;;;4973453;28;20410;-79
2023/06/25 00:27:16;;;;;;;12.93;10.13;;;19.00;82.70;;;;;;4957745;28;20047;-83
2023/06/25 00:29:42;;;;;;;14.43;10.82;;;19.00;82.90;;;;;;4973517;28;20392;-78
2023/06/25 00:32:08;;;;;;;12.35;11.02;;;18.90;83.00;;;;;;4957367;28;20042;-81
2023/06/25 00:34:41;;;;;;;14.65;11.60;;;18.90;83.30;;;;;;4942797;29;20039;-79
2023/06/25 00:37:16;;;;;;;13.60;10.57;;;18.90;83.70;;;;;;4954092;29;20047;-82
2023/06/25 00:39:46;;;;;;;14.77;11.13;;;18.90;83.60;;;;;;4985509;28;20074;-78
2023/06/25 00:42:13;;;;;;;12.70;10.52;;;18.90;83.50;;;;;;4954373;29;20507;-80
2023/06/25 00:44:42;;;;;;;13.30;10.63;;;18.90;83.50;;;;;;4954113;29;20047;-80
2023/06/25 00:47:13;;;;;;;13.15;11.02;;;18.90;83.70;;;;;;4969984;28;20035;-80
2023/06/25 00:49:44;;;;;;;11.63;10.43;;;18.80;83.40;;;;;;4958677;28;20070;-78
2023/06/25 00:52:15;;;;;;;15.77;11.32;;;18.80;83.50;;;;;;4958435;28;20043;-79
2023/06/25 00:54:44;;;;;;;15.13;11.02;;;18.80;83.40;;;;;;4974087;28;20102;-80
2023/06/25 00:57:11;;;;;;;12.30;10.77;;;18.70;83.40;;;;;;4973641;28;20043;-78
2023/06/25 00:59:39;;;;;;;14.57;11.40;;;18.70;83.40;;;;;;4957403;28;20109;-80
2023/06/25 01:02:17;;;;;;;13.82;10.70;;;18.70;83.40;;;;;;4957961;28;20043;-80
2023/06/25 01:04:51;;;;;;;12.15;10.05;;;18.70;83.60;;;;;;4957456;28;20496;-78
2023/06/25 01:07:18;;;;;;;12.43;11.10;;;18.60;83.60;;;;;;4975256;28;20126;-80
2023/06/25 01:09:48;;;;;;;14.73;12.45;;;18.60;83.60;;;;;;4976915;28;20043;-77
2023/06/25 01:12:14;;;;;;;17.10;12.40;;;18.60;83.70;;;;;;4961052;28;20050;-80
2023/06/25 01:14:41;;;;;;;13.55;11.88;;;18.50;83.70;;;;;;4977036;28;20043;-80
2023/06/25 01:17:07;;;;;;;17.45;12.18;;;18.50;83.80;;;;;;4977520;28;20038;-79
2023/06/25 01:19:33;;;;;;;17.10;12.90;;;18.50;83.80;;;;;;4960910;28;20047;-80
2023/06/25 01:22:01;;;;;;;16.13;13.00;;;18.40;83.80;;;;;;4960996;28;20042;-80
2023/06/25 01:24:28;;;;;;;17.20;12.63;;;18.40;83.90;;;;;;4976264;28;20050;-81
2023/06/25 01:26:59;;;;;;;14.55;12.43;;;18.40;84.10;;;;;;4956982;28;20051;-78
2023/06/25 01:29:26;;;;;;;16.58;13.10;;;18.30;84.20;;;;;;4957469;28;20405;-78
2023/06/25 01:31:52;;;;;;;14.93;12.70;;;18.30;84.20;;;;;;4957688;29;20384;-78
2023/06/25 01:34:21;;;;;;;17.70;13.90;;;18.30;84.30;;;;;;4957299;29;20373;-79
2023/06/25 01:36:49;;;;;;;17.35;14.25;;;18.30;84.30;;;;;;4957610;29;20400;-79
2023/06/25 01:39:16;;;;;;;15.77;12.85;;;18.20;84.50;;;;;;4957143;28;20050;-79
2023/06/25 01:41:46;;;;;;;17.05;13.77;;;18.20;84.60;;;;;;4957452;28;20138;-78
2023/06/25 01:44:15;;;;;;;15.93;12.80;;;18.20;84.70;;;;;;4976997;28;20456;-79
2023/06/25 01:46:41;;;;;;;15.52;13.68;;;18.20;84.80;;;;;;4960358;28;20038;-81
2023/06/25 01:49:08;;;;;;;16.27;12.43;;;18.20;84.60;;;;;;4960766;28;20030;-79
2023/06/25 01:51:34;;;;;;;16.92;13.93;;;18.20;84.90;;;;;;4976317;28;20039;-80
2023/06/25 01:53:59;;;;;;;16.75;14.35;;;18.10;84.90;;;;;;4976797;28;20098;-81
2023/06/25 01:56:25;;;;;;;16.40;14.15;;;18.10;84.90;;;;;;4976603;28;20038;-80
2023/06/25 01:58:53;;;;;;;16.20;13.25;;;18.00;85.00;;;;;;4976205;28;20050;-82
2023/06/25 02:01:22;;;;;;;18.20;14.77;;;18.00;85.00;;;;;;4944704;28;20511;-83
2023/06/25 02:03:48;;;;;;;21.88;16.08;;;18.00;85.10;;;;;;4945064;28;20415;-81
2023/06/25 02:06:14;;;;;;;19.23;16.60;;;18.00;85.00;;;;;;4976671;28;20049;-82
2023/06/25 02:08:40;;;;;;;20.92;15.10;;;18.00;85.10;;;;;;4976355;28;20042;-79
2023/06/25 02:11:06;;;;;;;19.75;14.88;;;18.00;85.20;;;;;;4960114;28;20081;-81
2023/06/25 02:13:33;;;;;;;21.90;15.48;;;18.00;85.30;;;;;;4975887;28;20506;-81
2023/06/25 02:16:00;;;;;;;21.27;14.63;;;18.00;85.20;;;;;;4960139;28;20035;-81
2023/06/25 02:18:25;;;;;;;18.90;14.90;;;18.00;85.40;;;;;;4975144;28;20078;-80
2023/06/25 02:20:51;;;;;;;17.30;15.35;;;18.00;85.40;;;;;;4960219;28;20046;-80
2023/06/25 02:23:17;;;;;;;18.58;14.90;;;18.00;85.30;;;;;;4944134;28;20043;-78
2023/06/25 02:25:42;;;;;;;19.75;16.02;;;18.00;85.40;;;;;;4959828;28;20081;-81
2023/06/25 02:28:08;;;;;;;21.73;16.55;;;18.00;85.50;;;;;;4959971;28;20038;-77
2023/06/25 02:30:34;;;;;;;21.30;17.17;;;17.90;85.60;;;;;;4975121;28;20049;-80
2023/06/25 02:32:59;;;;;;;20.30;15.45;;;17.90;85.50;;;;;;4975790;28;20047;-79
2023/06/25 02:35:25;;;;;;;19.02;15.90;;;17.90;85.60;;;;;;4975532;28;20154;-77
2023/06/25 02:37:51;;;;;;;21.38;16.40;;;17.80;85.60;;;;;;4959322;28;20121;-79
2023/06/25 02:40:16;;;;;;;19.27;16.20;;;17.80;85.70;;;;;;4959370;28;20078;-79
2023/06/25 02:42:42;;;;;;;21.85;16.08;;;17.80;85.80;;;;;;4943355;28;20085;-80
2023/06/25 02:45:08;;;;;;;20.05;17.35;;;17.80;85.80;;;;;;4959515;28;20049;-79
2023/06/25 02:47:34;;;;;;;19.58;16.27;;;17.70;85.80;;;;;;4942974;28;20092;-78
2023/06/25 02:49:59;;;;;;;17.58;15.40;;;17.70;86.00;;;;;;4959331;28;20125;-81
2023/06/25 02:52:25;;;;;;;19.80;16.40;;;17.60;86.00;;;;;;4927201;28;20116;-77
2023/06/25 02:54:51;;;;;;;19.73;15.95;;;17.70;86.00;;;;;;4959101;28;20045;-78
2023/06/25 02:57:16;;;;;;;21.83;15.93;;;17.60;86.10;;;;;;4959104;28;20173;-78
2023/06/25 02:59:42;;;;;;;20.98;16.63;;;17.70;86.10;;;;;;4942938;28;20094;-81
2023/06/25 03:02:08;;;;;;;17.75;15.18;;;17.60;86.20;;;;;;4942384;28;20491;-80
2023/06/25 03:04:34;;;;;;;20.10;16.90;;;17.70;86.10;;;;;;4975042;28;20046;-81
2023/06/25 03:07:00;;;;;;;19.02;16.17;;;17.70;86.10;;;;;;4958327;28;20042;-79
2023/06/25 03:09:25;;;;;;;18.70;15.38;;;17.60;86.10;;;;;;4958086;28;20130;-81
2023/06/25 03:11:51;;;;;;;21.17;16.45;;;17.60;86.20;;;;;;4974442;28;20035;-81
2023/06/25 03:14:17;;;;;;;21.80;16.50;;;17.60;86.30;;;;;;4958539;28;20125;-78
2023/06/25 03:16:42;;;;;;;18.83;15.80;;;17.60;86.20;;;;;;4974656;28;20039;-77
2023/06/25 03:19:08;;;;;;;22.98;17.00;;;17.60;86.30;;;;;;4958223;28;20126;-80
2023/06/25 03:21:34;;;;;;;18.48;15.88;;;17.60;86.30;;;;;;4958524;28;20042;-78
2023/06/25 03:23:59;;;;;;;18.98;15.75;;;17.60;86.30;;;;;;4974274;28;20050;-77
2023/06/25 03:26:25;;;;;;;19.33;16.70;;;17.60;86.30;;;;;;4958185;28;20074;-78
2023/06/25 03:28:53;;;;;;;20.30;16.35;;;17.60;86.40;;;;;;4941919;28;20395;-79
2023/06/25 03:31:19;;;;;;;21.33;17.15;;;17.60;86.30;;;;;;4942575;28;20458;-80
2023/06/25 03:33:45;;;;;;;19.98;16.90;;;17.60;86.40;;;;;;4974209;28;20141;-80
2023/06/25 03:36:10;;;;;;;20.90;17.35;;;17.60;86.30;;;;;;4942387;28;20043;-81
2023/06/25 03:38:36;;;;;;;19.30;16.35;;;17.60;86.40;;;;;;4974722;28;20515;-80
2023/06/25 03:41:02;;;;;;;23.45;18.25;;;17.50;86.40;;;;;;4942286;28;20129;-82
2023/06/25 03:43:27;;;;;;;20.60;16.55;;;17.50;86.30;;;;;;4958131;28;20031;-82
2023/06/25 03:45:53;;;;;;;21.52;17.50;;;17.50;86.40;;;;;;4941714;28;20480;-81
2023/06/25 03:48:19;;;;;;;24.55;18.08;;;17.50;86.40;;;;;;4941834;28;20133;-84
2023/06/25 03:50:45;;;;;;;20.30;16.10;;;17.50;86.50;;;;;;4941479;28;20046;-84
2023/06/25 03:53:10;;;;;;;20.75;16.33;;;17.50;86.50;;;;;;4938617;29;20140;-81
2023/06/25 03:55:36;;;;;;;20.63;15.90;;;17.50;86.50;;;;;;4939047;29;20039;-82
2023/06/25 03:58:02;;;;;;;20.45;17.27;;;17.50;86.50;;;;;;4923569;29;20039;-82
2023/06/25 04:00:27;;;;;;;19.67;16.52;;;17.50;86.60;;;;;;4923101;29;20065;-80
2023/06/25 04:02:53;;;;;;;22.42;16.58;;;17.50;86.50;;;;;;4923523;29;20047;-83
2023/06/25 04:05:19;;;;;;;22.65;18.05;;;17.50;86.60;;;;;;4939302;29;20047;-83
2023/06/25 04:07:44;;;;;;;19.30;16.77;;;17.50;86.50;;;;;;4923681;29;20042;-82
2023/06/25 04:10:10;;;;;;;18.55;15.48;;;17.50;86.60;;;;;;4938896;28;20471;-82
2023/06/25 04:12:36;;;;;;;22.67;16.55;;;17.50;86.60;;;;;;4958435;28;20049;-82
2023/06/25 04:15:02;;;;;;;22.48;17.52;;;17.60;86.70;;;;;;4942082;28;20126;-78
2023/06/25 04:17:27;;;;;;;18.55;16.55;;;17.60;86.70;;;;;;4957672;28;20074;-80
2023/06/25 04:19:53;;;;;;;20.42;16.35;;;17.60;86.70;;;;;;4973985;28;20097;-80
2023/06/25 04:22:19;;;;;;;21.90;16.75;;;17.60;86.80;;;;;;4973766;28;20101;-78
2023/06/25 04:24:45;;;;;;;19.13;17.02;;;17.70;86.80;;;;;;4957226;28;20121;-79
2023/06/25 04:27:10;;;;;;;17.88;14.98;;;17.70;86.60;;;;;;4973876;28;20055;-78
2023/06/25 04:29:36;;;;;;;19.67;15.40;;;17.80;86.70;;;;;;4941886;28;20047;-79
2023/06/25 04:32:02;;;;;;;17.75;15.68;;;17.80;86.70;;;;;;4958141;28;20089;-78
2023/06/25 04:34:28;;;;;;;17.60;14.63;;;17.90;86.70;;;;;;4957794;28;20050;-80
2023/06/25 04:36:54;;;;;;;18.92;14.75;;;18.00;86.70;;;;;;4941763;28;20039;-82
2023/06/25 04:39:19;;;;;;;20.15;14.68;;;18.00;86.50;;;;;;4957720;28;20038;-80
2023/06/25 04:41:45;;;;;;;16.63;14.23;;;18.00;86.40;;;;;;4955520;28;20039;-80
2023/06/25 04:44:11;;;;;;;18.52;15.13;;;18.10;86.40;;;;;;4958545;29;20078;-78
2023/06/25 04:46:36;;;;;;;17.50;13.98;;;18.20;86.20;;;;;;4974174;28;20043;-82
2023/06/25 04:49:02;;;;;;;19.35;14.93;;;18.20;86.30;;;;;;4957965;28;20070;-79
2023/06/25 04:51:28;;;;;;;16.92;12.30;;;18.20;86.20;;;;;;4942206;29;20051;-80
2023/06/25 04:53:54;;;;;;;17.58;12.82;;;18.30;86.10;;;;;;4958323;29;20098;-81
2023/06/25 04:56:20;;;;;;;15.77;13.73;;;18.40;86.00;;;;;;4958681;28;20046;-83
2023/06/25 04:58:45;;;;;;;15.52;12.50;;;18.50;86.00;;;;;;4945746;28;20125;-83
2023/06/25 05:01:11;;;;;;;12.98;11.38;;;18.50;85.80;;;;;;4977521;28;20066;-83
2023/06/25 05:03:37;;;;;;;19.10;12.73;;;18.60;85.60;;;;;;4945575;28;20074;-85
2023/06/25 05:06:03;;;;;;;14.23;12.38;;;18.70;85.50;;;;;;4946827;28;20051;-82
2023/06/25 05:08:28;;;;;;;17.52;12.82;;;18.70;85.30;;;;;;4974813;28;20054;-83
2023/06/25 05:10:54;;;;;;;15.60;12.15;;;18.80;84.90;;;;;;4977323;28;20086;-82
2023/06/25 05:13:20;;;;;;;10.48;9.30;;;18.90;84.80;;;;;;4964279;28;20078;-83
2023/06/25 05:15:46;;;;;;;13.82;11.05;;;18.90;84.70;;;;;;4954131;28;20043;-82
2023/06/25 05:18:12;;;;;;;12.30;9.32;;;19.00;84.30;;;;;;4977422;28;20100;-84
2023/06/25 05:20:38;;;;;;;11.40;9.93;;;19.10;84.20;;;;;;4977019;28;20137;-83
2023/06/25 05:23:05;;;;;;;11.02;8.50;;;19.20;84.00;;;;;;4980957;28;20050;-82
2023/06/25 05:25:35;;;;;;;14.10;11.52;;;19.20;83.90;;;;;;4977863;28;20054;-82
2023/06/25 05:28:02;;;;;;;15.50;10.45;;;19.30;83.60;;;;;;4962554;28;20550;-83
2023/06/25 05:30:28;;;;;;;13.40;10.38;;;19.30;83.30;;;;;;4978336;28;20038;-81
2023/06/25 05:32:55;;;;;;;11.00;9.75;;;19.40;83.10;;;;;;4961358;28;20042;-81
2023/06/25 05:35:21;;;;;;;15.02;9.55;;;19.50;82.80;;;;;;4946833;28;20395;-82
2023/06/25 05:37:47;;;;;;;12.63;10.35;;;19.60;82.70;;;;;;4946821;28;20045;-81
2023/06/25 05:40:14;;;;;;;10.35;8.63;;;19.60;82.40;;;;;;4961376;28;20034;-80
2023/06/25 05:42:40;;;;;;;11.35;8.80;;;19.70;82.30;;;;;;4961144;28;20045;-79
2023/06/25 05:45:07;;;;;;;10.30;8.95;;;19.80;82.20;;;;;;4960895;28;20400;-80
2023/06/25 05:47:32;;;;;;;11.93;8.55;;;19.90;82.20;;;;;;4960274;28;20046;-79
2023/06/25 05:49:58;;;;;;;10.52;8.63;;;20.00;82.00;;;;;;4960475;28;20047;-78
2023/06/25 05:52:24;;;;;;;12.65;9.65;;;20.00;81.50;;;;;;4976236;28;20380;-79
2023/06/25 05:54:50;;;;;;;9.02;8.10;;;20.10;81.30;;;;;;4944905;28;20047;-79
2023/06/25 05:57:15;;;;;;;9.57;7.50;;;20.20;81.30;;;;;;4976939;28;20487;-78
2023/06/25 05:59:41;;;;;;;9.10;7.70;;;20.20;81.00;;;;;;4943819;28;20058;-79
2023/06/25 06:02:11;;;;;;;7.75;6.72;;;20.40;80.80;;;;;;4928125;28;20093;-79
2023/06/25 06:04:37;;;;;;;9.57;7.60;;;20.50;80.50;;;;;;4959115;28;20070;-77
2023/06/25 06:07:03;;;;;;;9.65;7.18;;;20.50;80.00;;;;;;4944495;28;20070;-77
2023/06/25 06:09:29;;;;;;;9.73;8.25;;;20.60;79.90;;;;;;4943904;28;20043;-79
2023/06/25 06:11:55;;;;;;;11.55;8.57;;;20.70;78.20;;;;;;4960043;28;20046;-78
2023/06/25 06:14:21;;;;;;;9.20;7.88;;;20.80;78.30;;;;;;4943751;28;20125;-81
2023/06/25 06:16:46;;;;;;;11.35;8.80;;;20.90;78.30;;;;;;4959364;28;20074;-79
2023/06/25 06:19:12;;;;;;;9.18;8.00;;;20.90;78.00;;;;;;4943186;28;20070;-77
2023/06/25 06:21:38;;;;;;;10.85;7.68;;;21.00;77.50;;;;;;4975340;28;20510;-77
2023/06/25 06:24:03;;;;;;;8.80;6.78;;;21.10;76.90;;;;;;4959367;28;20039;-78
2023/06/25 06:26:30;;;;;;;8.57;7.68;;;21.20;76.80;;;;;;4959585;28;20047;-80
2023/06/25 06:28:55;;;;;;;10.70;8.77;;;21.30;76.20;;;;;;4943938;28;20484;-79
2023/06/25 06:31:22;;;;;;;10.80;8.95;;;21.40;76.40;;;;;;4943267;28;20043;-79
2023/06/25 06:33:48;;;;;;;9.80;8.48;;;21.50;75.60;;;;;;4959403;28;20106;-77
2023/06/25 06:36:13;;;;;;;12.90;8.93;;;21.50;75.60;;;;;;4955721;29;20108;-78
2023/06/25 06:38:39;;;;;;;11.90;9.98;;;21.60;75.00;;;;;;4955859;29;20051;-77
2023/06/25 06:41:05;;;;;;;11.50;10.05;;;21.60;75.30;;;;;;4940003;29;20045;-76
2023/06/25 06:43:31;;;;;;;12.05;8.88;;;21.70;75.10;;;;;;4955926;29;20050;-76
2023/06/25 06:45:57;;;;;;;12.38;9.82;;;21.80;75.10;;;;;;4956351;29;20049;-78
2023/06/25 06:48:23;;;;;;;9.68;8.68;;;21.80;73.60;;;;;;4956344;29;20043;-80
2023/06/25 06:50:49;;;;;;;11.52;8.85;;;21.90;74.60;;;;;;4956049;28;20046;-78
2023/06/25 06:53:15;;;;;;;10.27;9.25;;;22.00;74.80;;;;;;4960715;28;20043;-80
2023/06/25 06:55:40;;;;;;;13.82;10.73;;;22.10;74.20;;;;;;4943717;28;20042;-79
2023/06/25 06:58:06;;;;;;;13.35;11.35;;;22.10;74.00;;;;;;4975796;28;20031;-78
2023/06/25 07:00:32;;;;;;;12.45;11.02;;;22.20;73.10;;;;;;4959464;28;20050;-80
2023/06/25 07:02:59;;;;;;;11.23;10.02;;;22.20;73.60;;;;;;4975215;28;20054;-78
2023/06/25 07:05:25;;;;;;;12.65;10.70;;;22.40;73.70;;;;;;4942367;28;20423;-78
2023/06/25 07:07:51;;;;;;;14.52;11.60;;;22.40;73.50;;;;;;4974731;28;20043;-78
2023/06/25 07:10:16;;;;;;;14.32;12.07;;;22.40;73.70;;;;;;4973798;28;20388;-79
2023/06/25 07:12:42;;;;;;;13.52;12.23;;;22.60;73.50;;;;;;4959140;28;20408;-80
2023/06/25 07:15:08;;;;;;;13.82;12.30;;;22.60;72.70;;;;;;4959481;28;20034;-79
2023/06/25 07:17:34;;;;;;;16.00;13.00;;;22.70;73.20;;;;;;4943337;28;20035;-80
2023/06/25 07:19:59;;;;;;;14.70;13.20;;;22.70;73.20;;;;;;4974965;28;20055;-78
2023/06/25 07:22:25;;;;;;;15.45;13.20;;;22.80;72.90;;;;;;4927115;28;20043;-79
2023/06/25 07:24:51;;;;;;;12.80;11.27;;;22.90;73.00;;;;;;4958502;28;20050;-78
2023/06/25 07:27:17;;;;;;;15.40;13.43;;;23.10;73.10;;;;;;4973517;28;20042;-77
2023/06/25 07:29:42;;;;;;;15.05;13.57;;;23.20;72.80;;;;;;4958366;28;20053;-76
2023/06/25 07:32:08;;;;;;;17.00;14.63;;;23.20;72.70;;;;;;4958278;28;20129;-77
2023/06/25 07:34:34;;;;;;;19.13;15.07;;;23.30;72.30;;;;;;4974276;28;20475;-75
2023/06/25 07:37:00;;;;;;;15.60;14.10;;;23.40;72.10;;;;;;4942026;28;20070;-77
2023/06/25 07:39:29;;;;;;;16.20;14.43;;;23.50;71.90;;;;;;4957925;28;20484;-77
2023/06/25 07:41:56;;;;;;;22.52;17.20;;;23.60;71.90;;;;;;4974206;28;20112;-78
2023/06/25 07:44:22;;;;;;;17.85;14.43;;;23.80;71.60;;;;;;4957227;28;20078;-77
2023/06/25 07:46:48;;;;;;;15.38;12.93;;;23.90;70.80;;;;;;4973918;28;20082;-76
2023/06/25 07:49:14;;;;;;;18.13;13.52;;;24.00;70.80;;;;;;4973764;28;20768;-76
2023/06/25 07:51:40;;;;;;;15.68;14.07;;;24.10;70.80;;;;;;4974039;28;20038;-78
2023/06/25 07:54:06;;;;;;;14.25;12.80;;;24.20;70.10;;;;;;4958138;28;20047;-78
2023/06/25 07:56:32;;;;;;;13.82;12.57;;;24.30;69.50;;;;;;4974272;28;20102;-78
2023/06/25 07:58:57;;;;;;;15.45;13.90;;;24.40;69.40;;;;;;4957291;28;20506;-77
2023/06/25 08:01:23;;;;;;;15.80;12.63;;;24.50;69.40;;;;;;4955661;28;20054;-78
2023/06/25 08:03:48;;;;;;;14.55;13.15;;;24.60;68.30;;;;;;4958007;28;20047;-78
2023/06/25 08:06:14;;;;;;;14.60;12.25;;;24.60;66.80;;;;;;4957737;28;20035;-78
2023/06/25 08:08:40;;;;;;;13.68;12.38;;;24.70;66.80;;;;;;4956900;28;20076;-78
2023/06/25 08:11:05;;;;;;;14.65;13.20;;;24.80;66.90;;;;;;4957318;28;20049;-78
2023/06/25 08:13:31;;;;;;;13.57;11.63;;;24.80;67.30;;;;;;4973727;28;20439;-78
2023/06/25 08:15:57;;;;;;;13.07;11.75;;;24.90;66.70;;;;;;4958070;28;20045;-77
2023/06/25 08:18:22;;;;;;;13.95;11.55;;;25.00;66.00;;;;;;4945578;28;20062;-77
2023/06/25 08:20:48;;;;;;;13.02;11.75;;;25.10;66.00;;;;;;4977820;28;20501;-78
2023/06/25 08:23:14;;;;;;;12.73;11.40;;;25.30;66.10;;;;;;4961446;28;20403;-78
2023/06/25 08:25:39;;;;;;;9.82;8.82;;;25.30;63.40;;;;;;4929395;28;20106;-77
2023/06/25 08:28:05;;;;;;;12.07;10.48;;;25.40;64.30;;;;;;4961321;28;20200;-77
2023/06/25 08:30:31;;;;;;;12.65;11.45;;;25.50;64.30;;;;;;4929062;28;20050;-77
2023/06/25 08:32:56;;;;;;;11.75;9.50;;;25.60;64.70;;;;;;4975891;28;20046;-78
2023/06/25 08:35:22;;;;;;;12.00;10.68;;;25.90;64.70;;;;;;4960911;28;20599;-77
2023/06/25 08:37:47;;;;;;;12.27;11.07;;;25.90;63.90;;;;;;4952883;28;20319;-77
2023/06/25 08:40:13;;;;;;;10.98;9.82;;;25.90;63.10;;;;;;4970611;28;20415;-77
2023/06/25 08:42:41;;;;;;;10.75;9.38;;;26.00;63.20;;;;;;4960573;28;20126;-77
2023/06/25 08:45:08;;;;;;;11.00;9.15;;;26.10;62.70;;;;;;5009686;28;20050;-79
2023/06/25 08:47:38;;;;;;;10.45;9.45;;;26.20;60.50;;;;;;4985722;28;20082;-79
2023/06/25 08:50:06;;;;;;;10.18;9.18;;;26.30;59.90;;;;;;4944934;28;20039;-79
2023/06/25 08:52:33;;;;;;;10.23;9.18;;;26.30;59.30;;;;;;4977188;28;20039;-79
2023/06/25 08:54:59;;;;;;;10.00;8.93;;;26.50;60.90;;;;;;4976751;28;20081;-79
2023/06/25 08:57:25;;;;;;;10.30;9.32;;;26.70;60.60;;;;;;4976360;28;20042;-80
2023/06/25 08:59:51;;;;;;;9.70;8.57;;;26.80;58.80;;;;;;4944307;28;20381;-79
2023/06/25 09:02:17;;;;;;;7.85;7.05;;;26.90;58.80;;;;;;4960619;28;20065;-79
2023/06/25 09:04:46;;;;;;;11.13;8.18;;;26.90;58.50;;;;;;4959998;28;20088;-79
2023/06/25 09:07:16;;;;;;;7.32;6.57;;;27.00;57.90;;;;;;4945281;28;20043;-79
2023/06/25 09:09:43;;;;;;;9.45;7.35;;;27.10;54.10;;;;;;4944715;28;20105;-79
2023/06/25 09:12:10;;;;;;;11.05;7.53;;;27.20;55.70;;;;;;4960365;28;20039;-79
2023/06/25 09:14:36;;;;;;;7.50;6.80;;;27.30;56.20;;;;;;4976488;28;20039;-80
2023/06/25 09:17:02;;;;;;;6.65;5.95;;;27.40;55.70;;;;;;4960002;28;20407;-79
2023/06/25 09:19:28;;;;;;;9.18;6.78;;;27.50;51.70;;;;;;4976630;28;20050;-79
2023/06/25 09:21:54;;;;;;;7.47;6.78;;;27.50;53.80;;;;;;4959141;28;20043;-79
2023/06/25 09:24:21;;;;;;;8.18;6.30;;;27.70;54.30;;;;;;4976200;28;20047;-79
2023/06/25 09:26:53;;;;;;;6.85;6.13;;;27.80;54.70;;;;;;4976031;28;20101;-79
2023/06/25 09:29:20;;;;;;;8.02;6.82;;;27.90;53.70;;;;;;4930651;29;20610;-79
2023/06/25 09:31:47;;;;;;;8.13;6.75;;;28.10;53.90;;;;;;4941394;29;20050;-80
2023/06/25 09:34:17;;;;;;;7.22;5.97;;;28.10;50.90;;;;;;4957425;29;20530;-80
2023/06/25 09:36:44;;;;;;;6.10;5.50;;;28.20;52.80;;;;;;4941037;29;20399;-79
2023/06/25 09:39:11;;;;;;;6.90;5.47;;;28.30;52.90;;;;;;4967088;28;20130;-79
2023/06/25 09:41:40;;;;;;;7.30;6.15;;;28.40;51.90;;;;;;4976517;28;20050;-80
2023/06/25 09:44:06;;;;;;;6.40;5.78;;;28.60;52.20;;;;;;4973806;28;20477;-80
2023/06/25 09:46:37;;;;;;;6.95;6.25;;;28.50;49.40;;;;;;4960045;28;20043;-80
2023/06/25 09:49:03;;;;;;;6.55;5.47;;;28.60;50.10;;;;;;4944126;28;20520;-81
2023/06/25 09:52:09;;;;;;;6.45;5.80;;;28.60;50.00;;;;;;4976000;28;20046;-81
2023/06/25 09:54:39;;;;;;;5.90;5.15;;;28.70;50.50;;;;;;4959931;28;20335;-81
2023/06/25 09:57:09;;;;;;;5.22;4.72;;;28.90;49.70;;;;;;4978443;28;20070;-81
2023/06/25 09:59:36;;;;;;;5.15;4.65;;;29.00;49.30;;;;;;4990883;28;20077;-80
2023/06/25 10:02:05;;;;;;;6.65;4.82;;;29.10;47.60;;;;;;4948732;28;20411;-81
2023/06/25 10:04:32;;;;;;;5.88;5.30;;;29.20;48.60;;;;;;4967577;28;20589;-80
2023/06/25 10:06:58;;;;;;;8.15;5.82;;;29.40;48.60;;;;;;5010051;28;20035;-80
2023/06/25 10:09:24;;;;;;;7.80;5.50;;;29.40;47.10;;;;;;4968343;28;20038;-80
2023/06/25 10:11:51;;;;;;;6.88;5.15;;;29.30;46.70;;;;;;4985727;28;20487;-80
2023/06/25 10:14:16;;;;;;;5.72;5.15;;;29.40;46.90;;;;;;4992825;28;20550;-80
2023/06/25 10:16:52;;;;;;;6.15;5.53;;;29.50;47.80;;;;;;5004334;28;20121;-80
2023/06/25 10:19:22;;;;;;;8.73;5.20;;;29.60;46.20;;;;;;4949150;28;20039;-81
2023/06/25 10:22:08;;;;;;;5.68;4.97;;;29.50;47.00;;;;;;4964689;28;20105;-80
2023/06/25 10:24:38;;;;;;;8.38;5.43;;;29.70;47.80;;;;;;4942931;29;20043;-80
2023/06/25 10:27:04;;;;;;;5.40;4.72;;;29.70;47.00;;;;;;4956116;28;20043;-80
2023/06/25 10:29:39;;;;;;;9.32;5.13;;;29.70;44.60;;;;;;4924383;29;20169;-80
2023/06/25 10:32:05;;;;;;;6.55;4.55;;;29.70;44.60;;;;;;4955680;29;20040;-80
2023/06/25 10:34:37;;;;;;;8.80;5.35;;;29.50;45.60;;;;;;4937490;28;20097;-80
2023/06/25 10:37:05;;;;;;;6.18;4.65;;;29.50;44.70;;;;;;4959586;28;20125;-80
2023/06/25 10:39:38;;;;;;;6.25;5.15;;;29.80;46.80;;;;;;4958088;28;20038;-80
2023/06/25 10:42:05;;;;;;;4.93;3.92;;;29.60;44.00;;;;;;4958958;28;20078;-80
2023/06/25 10:44:34;;;;;;;5.00;4.47;;;29.80;45.40;;;;;;4975104;28;20047;-80
2023/06/25 10:47:10;;;;;;;6.13;4.55;;;29.90;43.20;;;;;;4958854;28;20074;-81
2023/06/25 10:49:36;;;;;;;5.15;4.68;;;29.90;44.80;;;;;;4942037;28;20435;-81
2023/06/25 10:52:03;;;;;;;6.88;4.97;;;30.20;44.80;;;;;;4958447;28;20078;-81
2023/06/25 10:54:31;;;;;;;5.78;4.82;;;30.30;44.80;;;;;;4958577;28;20034;-81
2023/06/25 10:57:13;;;;;;;6.50;5.22;;;30.40;44.50;;;;;;4958326;28;20563;-80
2023/06/25 10:59:39;;;;;;;5.13;4.63;;;30.10;41.80;;;;;;4973843;28;20065;-81
2023/06/25 11:02:21;;;;;;;6.25;4.80;;;30.20;43.50;;;;;;4971039;28;20058;-80
2023/06/25 11:04:51;;;;;;;5.15;4.65;;;30.50;44.20;;;;;;4946478;28;20042;-80
2023/06/25 11:07:19;;;;;;;5.35;4.60;;;30.60;42.70;;;;;;4962270;28;20489;-81
2023/06/25 11:09:50;;;;;;;5.43;4.93;;;30.70;43.00;;;;;;4955029;29;20043;-80
2023/06/25 11:12:17;;;;;;;4.85;4.35;;;30.90;42.70;;;;;;4939152;29;20043;-81
2023/06/25 11:14:44;;;;;;;4.72;4.20;;;31.00;41.20;;;;;;4939270;29;20046;-81
2023/06/25 11:17:13;;;;;;;5.40;4.85;;;31.10;41.90;;;;;;4923307;29;20440;-80
2023/06/25 11:19:38;;;;;;;5.20;4.70;;;31.10;40.90;;;;;;4939202;29;20051;-80
2023/06/25 11:22:07;;;;;;;4.75;4.25;;;31.10;39.30;;;;;;4939437;29;20126;-79
2023/06/25 11:24:37;;;;;;;7.78;4.95;;;31.10;38.20;;;;;;4968466;28;20042;-79
2023/06/25 11:27:03;;;;;;;4.97;4.47;;;30.80;38.50;;;;;;4942466;28;20042;-79
2023/06/25 11:29:41;;;;;;;5.82;4.85;;;30.60;38.50;;;;;;4958466;28;20086;-79
2023/06/25 11:32:09;;;;;;;6.30;4.00;;;30.90;38.50;;;;;;4974348;28;20054;-79
2023/06/25 11:34:44;;;;;;;5.63;4.93;;;31.00;38.50;;;;;;4958387;28;20389;-80
2023/06/25 11:37:14;;;;;;;4.82;4.25;;;30.90;37.80;;;;;;4957861;28;20043;-79
2023/06/25 11:39:50;;;;;;;7.40;4.20;;;31.00;38.90;;;;;;4956703;28;20053;-79
2023/06/25 11:42:21;;;;;;;5.20;4.60;;;31.40;38.80;;;;;;4957989;28;20137;-79
2023/06/25 11:45:05;;;;;;;4.70;4.10;;;31.70;38.80;;;;;;4973912;28;20097;-80
2023/06/25 11:47:31;;;;;;;5.57;4.10;;;31.60;36.10;;;;;;4973608;28;20158;-80
2023/06/25 11:49:58;;;;;;;5.15;4.50;;;31.30;34.90;;;;;;4973426;28;20073;-80
2023/06/25 11:52:25;;;;;;;4.53;3.92;;;31.40;36.50;;;;;;4958031;28;20043;-80
2023/06/25 11:54:50;;;;;;;6.95;4.82;;;31.70;37.10;;;;;;4973635;28;20045;-80
2023/06/25 11:57:18;;;;;;;4.97;4.30;;;31.80;35.50;;;;;;4971035;28;20039;-80
2023/06/25 11:59:43;;;;;;;4.70;3.72;;;31.70;35.70;;;;;;4973239;28;20423;-81
2023/06/25 12:02:12;;;;;;;4.40;4.00;;;31.80;36.40;;;;;;4941540;28;20049;-81
2023/06/25 12:04:38;;;;;;;7.15;5.13;;;31.70;36.40;;;;;;4957231;28;20125;-80
2023/06/25 12:07:05;;;;;;;5.00;4.50;;;31.80;35.50;;;;;;4957071;28;20047;-80
2023/06/25 12:09:31;;;;;;;5.25;4.43;;;31.60;34.10;;;;;;4957616;28;20047;-81
2023/06/25 12:11:56;;;;;;;4.95;4.30;;;31.70;35.00;;;;;;4940412;28;20035;-80
2023/06/25 12:14:22;;;;;;;6.93;5.20;;;31.60;33.90;;;;;;4925818;28;20546;-81
2023/06/25 12:16:48;;;;;;;5.50;4.45;;;31.70;34.30;;;;;;4973288;28;20078;-80
2023/06/25 12:19:15;;;;;;;5.00;3.92;;;31.90;34.90;;;;;;4931047;28;20046;-80
2023/06/25 12:21:40;;;;;;;5.95;5.00;;;31.90;33.60;;;;;;4917863;28;20514;-80
2023/06/25 12:24:06;;;;;;;5.75;4.63;;;31.50;33.40;;;;;;4946366;28;20042;-80
2023/06/25 12:26:32;;;;;;;6.30;5.10;;;31.70;33.80;;;;;;4947779;28;20046;-80
2023/06/25 12:28:57;;;;;;;7.55;4.70;;;31.80;33.90;;;;;;4947561;28;20043;-80
2023/06/25 12:31:23;;;;;;;5.72;5.10;;;32.10;32.90;;;;;;4947558;28;20043;-80
2023/06/25 12:33:49;;;;;;;5.53;5.00;;;32.00;32.70;;;;;;4948792;28;20035;-80